EJU13CV EGCC-LPPR
Flight info
| Callsign | EJU13CV |
|---|---|
| Flight time | N/A |
| Altitude | 23000 |
| Route | ASMIM DCT NOKIN P17 BEPHE/N0439F360 DCT OSSEP DCT ELNIF DCT ZESPE DCT DAWLY DCT BHD DCT SALCO/N0442F370 DCT IBISU DCT LOTEE DCT ELTEP/N0368F230 T328 ASPOR |
| Aircraft | A320/M-SDE3FGHIRWY/LB1 |
Departure
| Time | 2026-05-05 18:23 |
|---|---|
| Airport | Manchester Airport (EGCC) |
Arrival
| Time | N/A |
|---|---|
| Airport | Francisco de Sá Carneiro Airport (LPPR) |
| Time | Latitude | Longitude | Altitude | Speed | Heading |
|---|---|---|---|---|---|
| 2026-05-05 17:40 | 53.35979 | -2.27519 | 248 ft | 0 kts | 96° |
| 2026-05-05 18:12 | 53.35981 | -2.27545 | 247 ft | 4 kts | 96° |
| 2026-05-05 18:12 | 53.35983 | -2.27584 | 247 ft | 4 kts | 99° |
| 2026-05-05 18:13 | 53.35994 | -2.27616 | 247 ft | 4 kts | 160° |
| 2026-05-05 18:13 | 53.36011 | -2.27622 | 247 ft | 4 kts | 179° |
| 2026-05-05 18:13 | 53.36033 | -2.27620 | 247 ft | 1 kts | 186° |
| 2026-05-05 18:13 | 53.36017 | -2.27623 | 247 ft | 4 kts | 186° |
| 2026-05-05 18:14 | 53.36000 | -2.27626 | 247 ft | 0 kts | 185° |
| 2026-05-05 18:16 | 53.35971 | -2.27631 | 247 ft | 8 kts | 186° |
| 2026-05-05 18:16 | 53.35922 | -2.27641 | 247 ft | 8 kts | 187° |
| 2026-05-05 18:17 | 53.35852 | -2.27654 | 247 ft | 10 kts | 185° |
| 2026-05-05 18:17 | 53.35783 | -2.27663 | 247 ft | 8 kts | 181° |
| 2026-05-05 18:17 | 53.35731 | -2.27640 | 247 ft | 8 kts | 158° |
| 2026-05-05 18:17 | 53.35672 | -2.27608 | 247 ft | 6 kts | 171° |
| 2026-05-05 18:18 | 53.35635 | -2.27634 | 247 ft | 9 kts | 219° |
| 2026-05-05 18:18 | 53.35584 | -2.27709 | 247 ft | 9 kts | 224° |
| 2026-05-05 18:18 | 53.35535 | -2.27792 | 247 ft | 14 kts | 225° |
| 2026-05-05 18:18 | 53.35458 | -2.27918 | 245 ft | 16 kts | 224° |
| 2026-05-05 18:19 | 53.35377 | -2.28049 | 242 ft | 16 kts | 224° |
| 2026-05-05 18:19 | 53.35295 | -2.28184 | 237 ft | 18 kts | 225° |
| 2026-05-05 18:19 | 53.35212 | -2.28342 | 234 ft | 18 kts | 232° |
| 2026-05-05 18:19 | 53.35132 | -2.28508 | 230 ft | 18 kts | 231° |
| 2026-05-05 18:20 | 53.35061 | -2.28653 | 233 ft | 15 kts | 230° |
| 2026-05-05 18:20 | 53.34992 | -2.28782 | 230 ft | 15 kts | 226° |
| 2026-05-05 18:20 | 53.34921 | -2.28909 | 227 ft | 15 kts | 227° |
| 2026-05-05 18:20 | 53.34838 | -2.29042 | 220 ft | 15 kts | 217° |
| 2026-05-05 18:21 | 53.34759 | -2.29074 | 217 ft | 11 kts | 173° |
| 2026-05-05 18:21 | 53.34691 | -2.29021 | 225 ft | 10 kts | 148° |
| 2026-05-05 18:21 | 53.34665 | -2.28971 | 220 ft | 2 kts | 91° |
| 2026-05-05 18:21 | 53.34675 | -2.28941 | 218 ft | 1 kts | 52° |
| 2026-05-05 18:22 | 53.34680 | -2.28930 | 223 ft | 8 kts | 51° |
| 2026-05-05 18:22 | 53.34871 | -2.28534 | 234 ft | 79 kts | 51° |
| 2026-05-05 18:22 | 53.35341 | -2.27563 | 258 ft | 136 kts | 51° |
| 2026-05-05 18:22 | 53.36009 | -2.26162 | 532 ft | 159 kts | 52° |
| 2026-05-05 18:23 | 53.36696 | -2.24723 | 1286 ft | 157 kts | 51° |
| 2026-05-05 18:23 | 53.37419 | -2.23231 | 1755 ft | 176 kts | 50° |
| 2026-05-05 18:23 | 53.38223 | -2.21618 | 2326 ft | 181 kts | 46° |
| 2026-05-05 18:23 | 53.39358 | -2.20745 | 2948 ft | 189 kts | 2° |
| 2026-05-05 18:24 | 53.40573 | -2.21608 | 3585 ft | 200 kts | 315° |
| 2026-05-05 18:24 | 53.41109 | -2.23753 | 4230 ft | 206 kts | 277° |
| 2026-05-05 18:24 | 53.41208 | -2.26133 | 4941 ft | 203 kts | 275° |
| 2026-05-05 18:24 | 53.41638 | -2.28360 | 5495 ft | 204 kts | 309° |
| 2026-05-05 18:25 | 53.42586 | -2.30115 | 6132 ft | 203 kts | 313° |
| 2026-05-05 18:25 | 53.43226 | -2.31275 | 6462 ft | 210 kts | 313° |
| 2026-05-05 18:25 | 53.44624 | -2.33953 | 6694 ft | 246 kts | 304° |
| 2026-05-05 18:25 | 53.45455 | -2.36585 | 7147 ft | 263 kts | 296° |
| 2026-05-05 18:26 | 53.46271 | -2.39368 | 7914 ft | 267 kts | 295° |
| 2026-05-05 18:26 | 53.46800 | -2.42324 | 8798 ft | 269 kts | 280° |
| 2026-05-05 18:26 | 53.46808 | -2.45510 | 9558 ft | 277 kts | 263° |
| 2026-05-05 18:26 | 53.46416 | -2.48706 | 10318 ft | 283 kts | 260° |
| 2026-05-05 18:27 | 53.46004 | -2.52028 | 10703 ft | 301 kts | 260° |
| 2026-05-05 18:27 | 53.45589 | -2.55601 | 11011 ft | 320 kts | 261° |
| 2026-05-05 18:27 | 53.45126 | -2.59297 | 11587 ft | 329 kts | 254° |
| 2026-05-05 18:27 | 53.44138 | -2.62786 | 12277 ft | 336 kts | 238° |
| 2026-05-05 18:28 | 53.40524 | -2.67865 | 13740 ft | 350 kts | 205° |
| 2026-05-05 18:28 | 53.38237 | -2.69318 | 14393 ft | 353 kts | 202° |
| 2026-05-05 18:28 | 53.35921 | -2.70752 | 15046 ft | 356 kts | 202° |
| 2026-05-05 18:29 | 53.33582 | -2.72205 | 15457 ft | 367 kts | 202° |
| 2026-05-05 18:29 | 53.31129 | -2.73732 | 15586 ft | 384 kts | 202° |
| 2026-05-05 18:29 | 53.28578 | -2.75323 | 15719 ft | 400 kts | 202° |
| 2026-05-05 18:29 | 53.25954 | -2.76957 | 16400 ft | 396 kts | 202° |
| 2026-05-05 18:30 | 53.23426 | -2.78523 | 17805 ft | 378 kts | 202° |
| 2026-05-05 18:30 | 53.20991 | -2.80030 | 18759 ft | 371 kts | 202° |
| 2026-05-05 18:30 | 53.18572 | -2.81527 | 19420 ft | 372 kts | 202° |
| 2026-05-05 18:30 | 53.16137 | -2.83036 | 19996 ft | 373 kts | 202° |
| 2026-05-05 18:31 | 53.13698 | -2.84551 | 20545 ft | 376 kts | 202° |
| 2026-05-05 18:31 | 53.11237 | -2.86076 | 21089 ft | 378 kts | 202° |
| 2026-05-05 18:31 | 53.08680 | -2.87239 | 21619 ft | 384 kts | 192° |
| 2026-05-05 18:31 | 53.06009 | -2.87593 | 22144 ft | 389 kts | 181° |
| 2026-05-05 18:32 | 53.03294 | -2.87117 | 22670 ft | 395 kts | 173° |
| 2026-05-05 18:32 | 53.00578 | -2.86362 | 23196 ft | 397 kts | 173° |
| 2026-05-05 18:32 | 52.97843 | -2.85610 | 23690 ft | 400 kts | 173° |
| 2026-05-05 18:32 | 52.95095 | -2.84860 | 24112 ft | 402 kts | 173° |
| 2026-05-05 18:33 | 52.92329 | -2.84109 | 24543 ft | 403 kts | 173° |
| 2026-05-05 18:33 | 52.89588 | -2.83369 | 24938 ft | 406 kts | 173° |
| 2026-05-05 18:33 | 52.86750 | -2.82607 | 25335 ft | 408 kts | 173° |
| 2026-05-05 18:33 | 52.83980 | -2.81866 | 25698 ft | 411 kts | 172° |
| 2026-05-05 18:34 | 52.81145 | -2.81110 | 26073 ft | 413 kts | 172° |
| 2026-05-05 18:34 | 52.78304 | -2.80350 | 26439 ft | 415 kts | 172° |
| 2026-05-05 18:34 | 52.75441 | -2.79581 | 26800 ft | 418 kts | 172° |
| 2026-05-05 18:34 | 52.72565 | -2.78810 | 27145 ft | 420 kts | 172° |
| 2026-05-05 18:35 | 52.69674 | -2.78036 | 27482 ft | 423 kts | 172° |
| 2026-05-05 18:35 | 52.66763 | -2.77258 | 27802 ft | 425 kts | 172° |
| 2026-05-05 18:35 | 52.64070 | -2.76537 | 28102 ft | 428 kts | 172° |
| 2026-05-05 18:35 | 52.61117 | -2.75948 | 28435 ft | 429 kts | 179° |
| 2026-05-05 18:36 | 52.58121 | -2.76042 | 28744 ft | 431 kts | 184° |
| 2026-05-05 18:36 | 52.55118 | -2.76309 | 29042 ft | 434 kts | 185° |
| 2026-05-05 18:36 | 52.52105 | -2.76574 | 29344 ft | 436 kts | 184° |
| 2026-05-05 18:36 | 52.49067 | -2.76840 | 29643 ft | 438 kts | 184° |
| 2026-05-05 18:37 | 52.46012 | -2.77105 | 29977 ft | 439 kts | 184° |
| 2026-05-05 18:37 | 52.42953 | -2.77372 | 30240 ft | 441 kts | 184° |
| 2026-05-05 18:37 | 52.39884 | -2.77637 | 30483 ft | 443 kts | 184° |
| 2026-05-05 18:37 | 52.36795 | -2.77902 | 30724 ft | 445 kts | 184° |
| 2026-05-05 18:38 | 52.33699 | -2.78165 | 30960 ft | 446 kts | 184° |
| 2026-05-05 18:38 | 52.31604 | -2.78344 | 31099 ft | 448 kts | 184° |
| 2026-05-05 18:39 | 52.27601 | -2.78649 | 31311 ft | 451 kts | 184° |
| 2026-05-05 18:40 | 52.24479 | -2.78910 | 31681 ft | 448 kts | 184° |
| 2026-05-05 18:40 | 52.21379 | -2.79186 | 32134 ft | 443 kts | 185° |
| 2026-05-05 18:40 | 52.18314 | -2.79465 | 32535 ft | 441 kts | 184° |
| 2026-05-05 18:40 | 52.15253 | -2.79745 | 32847 ft | 440 kts | 184° |
| 2026-05-05 18:41 | 52.12200 | -2.80020 | 33133 ft | 440 kts | 184° |
| 2026-05-05 18:41 | 52.09131 | -2.80287 | 33442 ft | 440 kts | 184° |
| 2026-05-05 18:41 | 52.06069 | -2.80547 | 33730 ft | 440 kts | 184° |
| 2026-05-05 18:41 | 52.03011 | -2.80803 | 34014 ft | 440 kts | 184° |
| 2026-05-05 18:42 | 51.99956 | -2.81056 | 34263 ft | 440 kts | 184° |
| 2026-05-05 18:42 | 51.96911 | -2.81309 | 34584 ft | 437 kts | 185° |
| 2026-05-05 18:42 | 51.93878 | -2.81562 | 34874 ft | 436 kts | 184° |
| 2026-05-05 18:42 | 51.90851 | -2.81817 | 35109 ft | 435 kts | 184° |
| 2026-05-05 18:43 | 51.87826 | -2.82072 | 35305 ft | 436 kts | 184° |
| 2026-05-05 18:43 | 51.84797 | -2.82351 | 35530 ft | 435 kts | 186° |
| 2026-05-05 18:43 | 51.81790 | -2.82814 | 35762 ft | 434 kts | 188° |
| 2026-05-05 18:43 | 51.78794 | -2.83441 | 35958 ft | 434 kts | 189° |
| 2026-05-05 18:44 | 51.75806 | -2.84156 | 36146 ft | 434 kts | 190° |
| 2026-05-05 18:44 | 51.72827 | -2.84889 | 36379 ft | 432 kts | 190° |
| 2026-05-05 18:44 | 51.69850 | -2.85604 | 36589 ft | 432 kts | 189° |
| 2026-05-05 18:44 | 51.66876 | -2.86287 | 36743 ft | 433 kts | 189° |
| 2026-05-05 18:45 | 51.63891 | -2.86943 | 36927 ft | 432 kts | 189° |
| 2026-05-05 18:45 | 51.60914 | -2.87573 | 37013 ft | 431 kts | 188° |
| 2026-05-05 18:45 | 51.54960 | -2.89080 | 37014 ft | 435 kts | 197° |
| 2026-05-05 18:46 | 51.49231 | -2.92377 | 37009 ft | 441 kts | 201° |
| 2026-05-05 18:46 | 51.43469 | -2.95843 | 36995 ft | 448 kts | 201° |
| 2026-05-05 18:47 | 51.37595 | -2.99355 | 36996 ft | 452 kts | 201° |
| 2026-05-05 18:47 | 51.31689 | -3.02874 | 36989 ft | 453 kts | 201° |
| 2026-05-05 18:48 | 51.25783 | -3.06391 | 36986 ft | 452 kts | 201° |
| 2026-05-05 18:48 | 51.19890 | -3.09890 | 36986 ft | 452 kts | 201° |
| 2026-05-05 18:49 | 51.13999 | -3.13380 | 36996 ft | 452 kts | 201° |
| 2026-05-05 18:49 | 51.08058 | -3.16886 | 37001 ft | 452 kts | 201° |
| 2026-05-05 18:50 | 51.02195 | -3.20330 | 36997 ft | 453 kts | 201° |
| 2026-05-05 18:50 | 50.96286 | -3.23799 | 36991 ft | 453 kts | 201° |
| 2026-05-05 18:51 | 50.90376 | -3.27261 | 36992 ft | 453 kts | 201° |
| 2026-05-05 18:51 | 50.84471 | -3.30720 | 36975 ft | 453 kts | 201° |
| 2026-05-05 18:52 | 50.78549 | -3.34174 | 36974 ft | 453 kts | 201° |
| 2026-05-05 18:52 | 50.72618 | -3.37615 | 36974 ft | 454 kts | 201° |
| 2026-05-05 18:53 | 50.66694 | -3.41051 | 36972 ft | 454 kts | 200° |
| 2026-05-05 18:53 | 50.60761 | -3.44474 | 36987 ft | 454 kts | 201° |
| 2026-05-05 18:54 | 50.54649 | -3.46880 | 36974 ft | 454 kts | 186° |
| 2026-05-05 18:54 | 50.48359 | -3.47927 | 36977 ft | 454 kts | 186° |
| 2026-05-05 18:55 | 50.42074 | -3.48995 | 36984 ft | 455 kts | 187° |
| 2026-05-05 18:55 | 50.36829 | -3.49748 | 36974 ft | 455 kts | 184° |
| 2026-05-05 18:56 | 50.30502 | -3.50095 | 36978 ft | 455 kts | 181° |
| 2026-05-05 18:56 | 50.23137 | -3.50289 | 36980 ft | 455 kts | 181° |
| 2026-05-05 18:57 | 50.17834 | -3.50528 | 36980 ft | 455 kts | 182° |
| 2026-05-05 18:57 | 50.11500 | -3.50898 | 36974 ft | 455 kts | 182° |
| 2026-05-05 18:58 | 50.05165 | -3.51269 | 36973 ft | 456 kts | 182° |
| 2026-05-05 18:58 | 49.98818 | -3.51616 | 36972 ft | 456 kts | 182° |
| 2026-05-05 18:59 | 49.92472 | -3.51952 | 36981 ft | 456 kts | 182° |
| 2026-05-05 18:59 | 49.86122 | -3.52291 | 36974 ft | 457 kts | 182° |
| 2026-05-05 19:00 | 49.79754 | -3.52640 | 36970 ft | 457 kts | 182° |
| 2026-05-05 19:00 | 49.73446 | -3.53279 | 36979 ft | 457 kts | 191° |
| 2026-05-05 19:01 | 49.67309 | -3.55805 | 36979 ft | 457 kts | 196° |
| 2026-05-05 19:01 | 49.61195 | -3.58500 | 36983 ft | 457 kts | 196° |
| 2026-05-05 19:02 | 49.55067 | -3.61189 | 36977 ft | 458 kts | 196° |
| 2026-05-05 19:02 | 49.48931 | -3.63873 | 36967 ft | 459 kts | 196° |
| 2026-05-05 19:03 | 49.42783 | -3.66559 | 36971 ft | 459 kts | 196° |
| 2026-05-05 19:03 | 49.36639 | -3.69250 | 36978 ft | 460 kts | 196° |
| 2026-05-05 19:04 | 49.30474 | -3.71934 | 36976 ft | 460 kts | 196° |
| 2026-05-05 19:04 | 49.24308 | -3.74601 | 36988 ft | 461 kts | 196° |
| 2026-05-05 19:05 | 49.18134 | -3.77264 | 36986 ft | 461 kts | 196° |
| 2026-05-05 19:05 | 49.11949 | -3.79941 | 36984 ft | 462 kts | 196° |
| 2026-05-05 19:06 | 49.05761 | -3.82623 | 36987 ft | 463 kts | 196° |
| 2026-05-05 19:06 | 48.99561 | -3.85284 | 36988 ft | 463 kts | 195° |
| 2026-05-05 19:07 | 48.93351 | -3.87941 | 36987 ft | 464 kts | 195° |
| 2026-05-05 19:07 | 48.87133 | -3.90605 | 36990 ft | 464 kts | 196° |
| 2026-05-05 19:08 | 48.80906 | -3.93263 | 36993 ft | 465 kts | 195° |
| 2026-05-05 19:08 | 48.74680 | -3.95906 | 37003 ft | 465 kts | 196° |
| 2026-05-05 19:09 | 48.68452 | -3.98550 | 37017 ft | 465 kts | 196° |
| 2026-05-05 19:09 | 48.62270 | -4.01161 | 37016 ft | 465 kts | 196° |
| 2026-05-05 19:10 | 48.56047 | -4.03792 | 37016 ft | 465 kts | 195° |
| 2026-05-05 19:10 | 48.49802 | -4.06410 | 37005 ft | 466 kts | 195° |
| 2026-05-05 19:11 | 48.43557 | -4.09023 | 37009 ft | 466 kts | 195° |
| 2026-05-05 19:11 | 48.37312 | -4.11648 | 36998 ft | 466 kts | 195° |
| 2026-05-05 19:12 | 48.31056 | -4.14279 | 36999 ft | 467 kts | 195° |
| 2026-05-05 19:12 | 48.24787 | -4.16889 | 37007 ft | 467 kts | 195° |
| 2026-05-05 19:13 | 48.18521 | -4.19493 | 37002 ft | 468 kts | 195° |
| 2026-05-05 19:13 | 48.12248 | -4.22104 | 36978 ft | 468 kts | 195° |
| 2026-05-05 19:14 | 48.05969 | -4.24698 | 36983 ft | 469 kts | 195° |
| 2026-05-05 19:14 | 47.99680 | -4.27279 | 36972 ft | 469 kts | 195° |
| 2026-05-05 19:15 | 47.93381 | -4.29865 | 36962 ft | 470 kts | 195° |
| 2026-05-05 19:15 | 47.87060 | -4.32451 | 36961 ft | 471 kts | 195° |
| 2026-05-05 19:16 | 47.80738 | -4.35051 | 36976 ft | 472 kts | 195° |
| 2026-05-05 19:16 | 47.74403 | -4.37640 | 36977 ft | 472 kts | 195° |
| 2026-05-05 19:17 | 47.68065 | -4.40217 | 36987 ft | 473 kts | 195° |
| 2026-05-05 19:17 | 47.61716 | -4.42799 | 36977 ft | 473 kts | 195° |
| 2026-05-05 19:18 | 47.55356 | -4.45386 | 36983 ft | 473 kts | 195° |
| 2026-05-05 19:18 | 47.49004 | -4.47954 | 36968 ft | 474 kts | 195° |
| 2026-05-05 19:19 | 47.42678 | -4.50493 | 36976 ft | 474 kts | 195° |
| 2026-05-05 19:19 | 47.36322 | -4.53046 | 36977 ft | 474 kts | 195° |
| 2026-05-05 19:20 | 47.29951 | -4.55611 | 36973 ft | 474 kts | 195° |
| 2026-05-05 19:20 | 47.23577 | -4.58163 | 36987 ft | 474 kts | 195° |
| 2026-05-05 19:21 | 47.17204 | -4.60705 | 36983 ft | 474 kts | 195° |
| 2026-05-05 19:21 | 47.10829 | -4.63240 | 36978 ft | 474 kts | 195° |
| 2026-05-05 19:22 | 47.04507 | -4.66025 | 36985 ft | 474 kts | 199° |
| 2026-05-05 19:22 | 46.98307 | -4.69320 | 36991 ft | 474 kts | 201° |
| 2026-05-05 19:23 | 46.92120 | -4.72686 | 36985 ft | 474 kts | 200° |
| 2026-05-05 19:23 | 46.85902 | -4.75921 | 36979 ft | 474 kts | 200° |
| 2026-05-05 19:24 | 46.79663 | -4.79055 | 36981 ft | 474 kts | 199° |
| 2026-05-05 19:24 | 46.73425 | -4.82206 | 36986 ft | 474 kts | 200° |
| 2026-05-05 19:25 | 46.67187 | -4.85380 | 36979 ft | 474 kts | 199° |
| 2026-05-05 19:25 | 46.60997 | -4.88526 | 36977 ft | 475 kts | 200° |
| 2026-05-05 19:26 | 46.54756 | -4.91684 | 36981 ft | 475 kts | 200° |
| 2026-05-05 19:26 | 46.48502 | -4.94826 | 36988 ft | 476 kts | 199° |
| 2026-05-05 19:27 | 46.42249 | -4.97962 | 36975 ft | 476 kts | 200° |
| 2026-05-05 19:27 | 46.35997 | -5.01109 | 36997 ft | 476 kts | 200° |
| 2026-05-05 19:28 | 46.29727 | -5.04250 | 36992 ft | 476 kts | 200° |
| 2026-05-05 19:28 | 46.23462 | -5.07375 | 37000 ft | 476 kts | 200° |
| 2026-05-05 19:29 | 46.17209 | -5.10494 | 37010 ft | 475 kts | 200° |
| 2026-05-05 19:29 | 46.16152 | -5.11021 | 37012 ft | 475 kts | 200° |